Date,TemperatureHighF,TemperatureAvgF,TemperatureLowF,DewpointHighF,DewpointAvgF,DewpointLowF,HumidityHigh,HumidityAvg,HumidityLow,PressureMaxIn,PressureMinIn,WindSpeedMaxMPH,WindSpeedAvgMPH,GustSpeedMaxMPH,PrecipitationSumIn
2013-2-1,10,0,-7,8,-5,-12,89,77,66,30.37,30.12,15,8,18,0.00
2013-2-2,19,11,4,16,8,0,92,85,77,30.11,30.01,13,5,16,0.00
2013-2-3,19,16,10,16,11,7,91,83,70,30.06,29.94,21,7,24,0.00
2013-2-4,20,15,2,18,12,-2,92,87,79,29.98,29.84,19,7,20,0.01
2013-2-5,30,21,2,26,17,-2,92,87,79,30.08,29.79,24,8,24,0.01
2013-2-6,36,24,2,32,20,-1,93,86,78,30.17,30.02,17,6,20,0.08
2013-2-7,34,32,26,33,31,24,96,94,88,30.05,29.86,15,6,19,0.40
2013-2-8,29,20,3,23,16,0,91,85,69,30.35,30.05,12,4,18,0.05
2013-2-9,30,24,3,27,21,0,94,90,86,30.36,30.01,24,10,29,0.00
2013-2-10,42,35,22,41,33,21,98,94,76,30.01,29.36,28,16,42,0.46
2013-2-11,35,29,23,32,24,18,89,81,77,30.02,29.41,40,18,44,0.00
2013-2-12,33,26,22,27,21,18,90,83,72,30.08,29.85,19,8,24,0.00
2013-2-13,38,32,22,32,28,21,93,86,75,29.84,29.64,13,5,14,0.00
2013-2-14,36,34,29,32,29,25,89,82,72,29.97,29.56,28,12,32,0.01
2013-2-15,29,21,14,25,13,7,83,71,59,30.21,29.98,20,12,24,0.00
2013-2-16,19,14,10,9,7,5,82,75,65,30.21,30.14,15,7,21,0.00
2013-2-17,30,20,8,23,14,4,86,77,68,30.18,29.86,20,9,24,0.00
2013-2-18,49,33,18,40,28,14,95,83,71,29.85,29.45,24,13,27,0.13
2013-2-19,17,9,4,14,5,-1,88,83,78,30.26,29.62,28,18,36,0.00
2013-2-20,20,11,4,13,5,-2,85,77,71,30.40,30.27,15,7,20,0.00
2013-2-21,26,18,8,24,15,5,94,87,81,30.40,29.93,28,11,34,0.00
2013-2-22,28,26,23,27,24,21,94,92,89,29.93,29.76,19,9,28,0.03
2013-2-23,26,22,18,21,17,13,90,83,71,29.96,29.87,14,8,16,0.00
2013-2-24,31,20,6,23,15,3,92,82,68,30.11,29.95,8,3,9,0.00
2013-2-25,36,26,13,30,22,11,93,85,77,30.14,29.93,13,4,16,0.00
2013-2-26,33,31,29,29,27,26,95,86,78,29.93,29.55,31,18,39,0.00
2013-2-27,32,30,28,30,28,26,96,94,92,29.77,29.59,14,8,18,0.09
2013-2-28,34,31,27,30,28,21,95,87,80,30.08,29.77,13,5,17,0.02